Date,TemperatureHighF,TemperatureAvgF,TemperatureLowF,DewpointHighF,DewpointAvgF,DewpointLowF,HumidityHigh,HumidityAvg,HumidityLow,PressureMaxIn,PressureMinIn,WindSpeedMaxMPH,WindSpeedAvgMPH,GustSpeedMaxMPH,PrecipitationSumIn
2012-1-11,48.2,42.0,44.6,45.9,32.5,-99.9,98,89,98,29.93,29.92,0,-91,0,0.00
2012-1-12,50.0,46.0,44.6,49.5,45.5,44.1,98,98,98,29.92,29.90,0,0,0,0.00
2012-1-13,50.0,38.7,26.6,26.2,16.8,-99.9,91,45,23,29.97,29.87,9,-13,0,0.00
2012-1-14,62.6,44.0,26.6,41.8,27.9,-26.9,98,64,2,30.03,29.91,9,2,0,0.00
2012-1-15,69.8,49.2,32.0,49.5,38.4,31.5,98,72,28,30.05,29.90,6,2,0,0.01
2012-1-16,73.4,63.5,50.0,65.0,58.8,47.9,98,86,65,29.91,29.74,13,4,0,0.00
2012-1-17,71.6,67.2,59.0,71.0,66.6,58.4,98,98,98,29.76,29.65,13,4,0,0.61
2012-1-18,62.6,49.1,41.0,54.6,37.9,18.9,98,68,30,29.93,29.76,8,2,0,0.00
2012-1-19,71.6,54.0,35.6,67.4,49.6,-99.9,98,88,67,29.92,29.65,10,-9,0,1.22
2012-1-20,79.0,72.0,68.0,74.2,69.9,67.4,98,93,76,30.01,29.88,17,5,0,0.00
2012-1-21,81.0,72.9,66.9,74.2,70.2,66.3,98,92,70,30.02,29.85,13,4,0,0.00
2012-1-22,81.0,73.5,68.9,74.2,71.2,68.3,98,93,74,30.00,29.76,17,5,0,0.01
2012-1-23,79.0,70.5,61.0,72.3,59.0,40.6,98,71,38,30.10,29.75,11,3,0,0.75
2012-1-24,64.9,57.5,54.0,57.0,46.9,37.7,98,71,42,30.15,29.83,8,3,0,0.49
2012-1-25,81.9,70.3,59.0,72.8,67.9,57.0,98,93,65,30.14,29.94,13,4,0,0.20
2012-1-26,66.9,61.3,54.0,66.3,56.3,50.5,98,84,64,30.06,29.92,11,6,0,2.06
2012-1-27,68.0,55.0,45.0,50.8,44.0,36.1,98,71,31,30.06,29.73,10,2,0,0.00
2012-1-28,68.9,53.2,41.0,55.8,42.5,32.4,98,71,40,30.16,29.78,11,3,0,0.00
2012-1-29,65.8,49.1,36.9,36.5,26.2,-38.5,87,49,1,30.33,29.83,6,2,0,0.00
2012-1-30,68.0,52.8,37.9,55.4,44.5,35.3,98,76,44,30.02,29.65,7,2,0,0.00
2012-1-31,79.0,66.1,54.9,67.5,61.3,54.3,98,86,57,30.06,29.86,8,2,0,0.12
2012-2-1,68.9,65.2,61.0,68.3,64.7,60.4,98,98,98,30.21,29.90,7,2,0,1.89
2012-2-2,77.0,67.3,63.0,71.6,66.1,62.4,98,96,81,30.19,29.90,10,3,0,0.01
2012-2-3,79.0,70.4,65.8,73.0,67.5,65.3,98,91,68,30.12,29.87,10,4,0,0.03
2012-2-4,79.9,68.3,61.9,74.0,67.1,61.3,98,96,77,30.20,29.95,9,2,0,0.49
2012-2-5,63.0,58.2,50.9,62.4,55.7,47.5,98,92,80,30.14,29.93,9,4,0,0.00
2012-2-6,65.8,54.9,45.0,48.1,45.5,42.5,91,72,48,30.10,29.74,8,3,0,0.00
2012-2-7,72.0,57.8,45.0,47.9,45.7,44.2,98,67,39,30.03,29.71,7,2,0,0.00
2012-2-8,66.9,57.5,50.0,47.0,42.5,39.1,79,59,38,30.19,29.86,12,5,0,0.00
2012-2-9,61.9,52.8,43.0,49.2,41.9,38.8,94,68,47,30.12,29.73,8,3,0,0.01
2012-2-10,52.0,48.9,43.9,51.4,48.3,19.6,98,96,91,29.96,29.71,7,1,0,0.90
2012-2-11,52.0,44.2,32.0,47.3,30.6,17.2,98,63,28,29.89,29.69,14,6,0,0.01
2012-2-12,50.9,38.8,28.0,28.4,19.1,14.7,63,47,24,29.85,29.54,10,3,0,0.00
2012-2-13,61.9,51.7,39.9,57.4,40.2,22.1,98,66,45,29.75,29.38,12,4,0,0.69
2012-2-14,70.9,59.3,50.9,58.4,53.5,49.7,98,84,51,29.90,29.51,7,2,0,0.01
2012-2-15,74.8,63.2,48.9,70.3,60.7,48.4,98,92,71,30.03,29.69,10,4,0,0.96
2012-2-16,72.0,67.4,59.9,69.4,64.7,57.9,98,91,73,30.05,29.86,8,3,0,0.01
2012-2-17,74.8,63.8,55.9,63.3,57.4,54.2,98,81,56,30.02,29.77,8,2,0,0.00
2012-2-18,63.0,59.1,56.8,62.4,58.6,56.3,98,98,98,30.00,29.75,18,4,0,4.15
2012-2-19,61.0,53.3,43.0,57.4,48.7,42.5,98,86,61,30.09,29.78,13,5,0,1.16
2012-2-20,65.8,53.3,39.9,52.4,45.6,39.4,98,78,48,30.05,29.61,9,3,0,0.00
2012-2-21,77.9,62.7,50.9,61.5,56.2,50.4,98,82,50,30.06,29.79,9,1,0,1.15
2012-2-22,79.9,67.3,55.9,71.5,64.5,55.4,98,91,67,30.00,29.76,17,4,0,0.00
2012-2-23,74.3,69.6,71.2,70.2,62.8,-99.9,93,86,85,37.49,32.19,14,-29,0,0.00
2012-2-24,72.7,63.5,53.4,71.5,43.0,21.4,98,54,21,32.09,30.95,17,6,0,0.00
2012-2-25,61.9,53.8,44.2,38.3,28.7,22.9,59,39,24,30.95,30.49,8,2,0,0.00
2012-2-26,63.7,56.2,49.1,56.3,46.8,37.3,98,72,58,30.49,30.27,12,4,0,0.00
2012-2-27,62.6,59.2,55.2,60.8,57.3,53.9,98,94,84,30.31,30.20,7,4,0,0.00
2012-2-28,81.9,69.9,60.3,72.0,66.1,59.7,98,89,66,30.21,30.03,11,3,0,0.00
2012-2-29,82.8,74.3,69.6,70.7,69.2,64.4,98,85,55,30.03,29.90,13,4,0,0.00
2012-3-1,84.0,74.3,69.6,71.0,69.2,66.5,98,85,62,29.93,29.75,14,5,0,0.00
2012-3-2,84.6,75.7,70.0,73.2,70.1,67.9,94,84,63,29.79,29.66,13,6,0,0.11
2012-3-3,73.9,48.7,41.4,70.8,35.6,-99.9,90,69,59,30.06,29.68,7,-48,0,0.17
2012-3-4,70.5,54.2,35.1,45.0,35.1,22.7,98,56,19,30.20,30.06,11,2,0,0.00
2012-3-5,80.1,61.9,43.2,52.5,43.0,34.1,98,57,19,30.32,30.20,8,2,0,0.00
2012-3-6,77.0,61.7,45.9,59.5,52.0,45.3,98,75,37,30.29,30.14,8,3,0,0.00
2012-3-7,83.3,69.6,58.5,67.1,62.1,55.8,94,79,50,30.14,30.01,10,4,0,0.00
2012-3-8,85.8,75.3,68.0,70.5,68.7,66.3,98,81,57,30.04,29.92,14,4,0,0.00
2012-3-9,71.4,62.1,55.9,70.8,60.3,46.7,98,94,71,30.20,29.97,9,4,0,0.26
2012-3-10,67.6,59.4,51.8,57.6,46.9,40.0,91,64,52,30.16,30.03,9,4,0,0.00
2012-3-11,79.0,70.6,59.0,68.2,65.4,57.3,98,85,69,30.05,29.92,11,4,0,0.01
2012-3-12,70.0,65.4,60.1,67.4,64.5,59.5,98,97,88,30.05,29.93,10,2,0,1.49
2012-3-13,86.5,72.0,59.0,73.1,66.7,58.4,98,85,57,30.08,29.96,8,1,0,0.01
2012-3-14,85.6,74.0,65.5,71.4,68.1,64.9,98,84,54,30.08,29.98,7,1,0,0.00
2012-3-15,85.8,72.6,62.8,71.2,65.4,61.6,98,81,51,30.11,29.97,7,2,0,0.00
2012-3-16,86.4,72.6,61.9,70.9,64.4,61.3,98,78,46,30.05,29.94,9,2,0,0.00
2012-3-17,85.6,71.9,61.7,71.3,65.5,61.1,98,82,52,30.03,29.90,12,2,0,0.00
2012-3-18,87.1,74.3,65.8,72.2,67.1,63.6,98,81,51,30.00,29.89,11,2,0,0.00
2012-3-19,83.1,73.6,67.6,70.5,67.6,64.1,98,83,55,29.92,29.74,9,3,0,0.00
2012-3-20,82.8,75.3,70.5,71.2,69.2,67.1,98,82,60,29.74,29.64,10,4,0,0.06
2012-3-21,74.5,64.5,56.8,70.5,62.7,55.7,98,94,87,29.86,29.61,15,3,0,4.11
2012-3-22,75.7,62.2,52.0,61.5,57.2,51.4,98,85,53,29.88,29.79,6,2,0,0.93
2012-3-23,85.8,69.2,57.9,65.5,57.4,45.4,98,72,26,29.88,29.78,9,1,0,0.00
2012-3-24,83.5,67.6,53.1,59.1,54.2,50.1,98,67,34,29.87,29.77,10,2,0,0.01
2012-3-25,85.6,68.2,51.3,61.5,54.3,50.7,98,66,34,29.90,29.79,7,2,0,0.00
2012-3-26,86.7,71.8,57.4,62.1,59.2,56.0,98,68,40,29.94,29.83,6,1,0,0.00
2012-3-27,87.3,75.9,59.5,65.8,62.5,59.0,98,66,44,29.99,29.88,6,2,0,0.00
2012-3-28,86.9,72.0,60.4,68.4,64.2,59.9,98,79,46,30.00,29.85,11,2,0,0.00
2012-3-29,86.0,71.9,61.2,72.7,65.3,60.6,98,83,47,29.88,29.73,13,1,0,1.26
2012-3-30,86.2,73.1,64.4,71.4,66.8,63.1,98,83,51,29.80,29.68,9,2,0,0.29
2012-3-31,89.2,74.8,63.7,71.1,66.8,63.1,98,79,46,29.82,29.70,10,2,0,0.00
2012-4-1,88.9,76.2,66.2,72.3,69.2,65.6,98,81,52,29.77,29.65,8,2,0,0.00
2012-4-2,89.6,70.5,64.9,75.7,67.8,64.4,98,93,52,29.73,29.63,7,2,0,0.59
2012-4-3,90.7,75.0,60.4,72.9,67.3,59.9,98,79,48,29.79,29.68,8,2,0,0.00
2012-4-4,80.4,70.6,63.0,73.0,66.5,62.4,98,88,68,29.79,29.62,10,3,0,1.96
2012-4-5,84.4,74.1,66.0,72.1,66.7,59.3,98,79,58,29.71,29.59,9,2,0,0.00
2012-4-6,82.4,69.8,54.5,61.3,58.4,53.9,98,70,45,29.91,29.72,7,2,0,0.00
2012-4-7,84.4,70.5,56.5,64.2,59.8,53.9,93,71,47,30.04,29.91,6,2,0,0.00
2012-4-8,86.0,72.0,58.3,68.8,61.0,57.7,98,72,41,30.12,29.98,7,1,0,0.00
2012-4-9,84.9,72.8,60.6,63.8,61.3,58.3,92,69,46,30.04,29.91,8,2,0,0.00
2012-4-10,87.3,74.3,60.3,74.0,62.1,59.2,98,69,43,29.99,29.88,5,1,0,0.00
2012-4-11,87.8,69.8,61.7,73.5,65.3,61.1,98,87,54,29.97,29.88,9,2,0,0.37
2012-4-12,80.2,69.5,58.6,63.8,58.9,52.3,98,71,49,30.02,29.92,8,3,0,0.00
2012-4-13,86.7,73.0,60.4,69.9,65.4,59.9,98,79,53,29.98,29.89,8,2,0,0.00
2012-4-14,86.7,74.1,59.9,68.9,65.1,59.3,98,76,52,29.96,29.85,8,2,0,0.00
2012-4-15,87.1,76.4,67.1,73.5,70.0,66.5,98,82,58,29.86,29.79,17,3,0,0.00
2012-4-16,86.7,73.4,68.2,76.4,70.4,67.6,98,91,61,29.98,29.83,8,2,0,0.63
2012-4-17,73.2,66.9,57.7,71.5,64.4,55.9,98,92,70,29.99,29.89,11,3,0,0.55
2012-4-18,81.1,66.6,53.2,60.5,57.1,52.7,98,75,46,29.98,29.84,9,3,0,0.00
2012-4-19,85.5,69.8,54.3,58.5,55.7,52.1,98,65,34,29.89,29.72,7,2,0,0.00
2012-4-20,85.6,71.2,55.8,66.8,60.3,55.2,98,72,43,29.77,29.59,8,2,0,0.00
2012-4-21,69.8,63.4,52.3,65.7,59.9,50.4,98,89,72,29.77,29.54,11,4,0,0.45
2012-4-22,84.4,66.2,50.2,55.7,52.1,45.8,98,65,37,29.86,29.71,11,4,0,0.00
2012-4-23,73.2,62.4,50.0,48.7,45.2,42.2,83,55,35,29.99,29.86,12,4,0,0.00
2012-4-24,81.1,63.7,43.5,56.3,48.4,43.0,98,63,31,29.99,29.84,10,2,0,0.00
2012-4-25,87.4,70.5,52.3,67.2,60.6,51.8,98,74,44,29.89,29.81,12,4,0,0.00
2012-4-26,87.3,74.2,63.0,71.0,66.5,62.4,98,79,52,29.91,29.80,13,3,0,0.00
2012-4-27,87.6,74.8,64.4,70.8,66.1,63.8,98,77,50,29.90,29.81,10,3,0,0.00
2012-4-28,89.1,75.9,63.9,71.5,66.5,63.3,98,76,47,29.88,29.80,11,2,0,0.00
2012-4-29,89.6,76.5,63.5,74.9,70.0,62.9,98,82,56,29.93,29.85,7,2,0,0.00
2012-4-30,93.7,79.4,68.0,75.8,70.0,65.1,98,76,45,29.97,29.85,8,2,0,0.00
2012-5-1,90.3,78.3,65.7,75.1,70.6,65.1,98,79,55,29.92,29.79,7,2,0,0.00
2012-5-2,87.1,74.4,67.8,77.8,72.5,67.2,98,94,71,29.81,29.70,9,2,0,3.80
2012-5-3,93.4,80.0,68.2,77.6,72.7,67.6,98,81,49,29.86,29.78,6,1,0,0.00
2012-5-4,95.0,82.4,70.5,77.2,73.2,69.9,98,76,49,29.90,29.78,6,2,0,0.00
2012-5-5,93.4,81.7,72.3,77.9,74.0,71.7,98,80,53,29.84,29.72,8,2,0,0.17
2012-5-6,94.8,79.6,69.8,77.8,72.8,69.2,98,82,50,29.82,29.69,7,1,0,0.12
2012-5-7,92.1,75.9,67.5,75.9,70.6,66.9,98,86,53,29.79,29.65,9,2,0,2.19
2012-5-8,90.0,75.9,65.7,75.0,69.9,65.1,98,84,55,29.77,29.66,7,2,0,0.00
2012-5-9,87.4,76.2,69.1,73.6,69.6,62.6,98,81,55,29.79,29.70,7,3,0,0.00
2012-5-10,84.9,75.3,63.0,62.6,60.4,56.2,93,63,39,29.83,29.73,6,1,0,0.01
2012-5-11,74.7,69.0,64.0,71.2,66.9,62.9,98,93,83,29.88,29.75,7,1,0,0.30
2012-5-12,82.9,73.2,67.6,77.2,70.9,67.1,98,93,78,29.90,29.82,8,2,0,0.20
2012-5-13,82.8,72.7,65.8,69.7,66.9,65.0,98,83,56,29.94,29.84,7,2,0,0.00
2012-5-14,86.2,73.4,61.5,70.0,64.7,60.9,98,76,48,29.91,29.78,7,2,0,0.00
2012-5-15,87.1,75.2,60.6,66.3,63.3,60.1,98,70,42,29.88,29.79,6,1,0,0.00
2012-5-16,88.5,76.5,66.9,69.7,66.8,62.3,98,75,42,29.87,29.76,9,2,0,0.00
2012-5-17,91.4,77.9,61.7,69.8,63.3,57.8,98,66,34,29.86,29.76,7,1,0,0.00
2012-5-18,92.8,79.5,65.1,71.0,64.7,60.0,98,65,35,29.84,29.75,7,1,0,0.00
2012-5-19,92.3,79.9,64.9,73.3,67.4,64.4,98,69,43,29.89,29.79,7,2,0,0.00
2012-5-20,92.5,80.0,67.5,73.4,67.6,63.9,98,70,42,29.95,29.84,7,2,0,0.00
2012-5-21,93.7,81.1,67.5,72.4,67.6,63.0,98,68,37,29.93,29.79,6,2,0,0.00
2012-5-22,94.8,80.1,66.0,71.6,68.1,62.7,98,70,37,29.85,29.68,6,2,0,0.00
2012-5-23,93.7,81.4,69.3,77.4,71.5,67.3,98,74,48,29.73,29.62,8,3,0,0.00
2012-5-24,93.2,80.9,68.4,75.6,70.4,65.0,98,74,41,29.74,29.64,11,3,0,0.00
2012-5-25,93.2,80.5,67.1,76.5,72.5,66.5,98,79,54,29.90,29.72,8,2,0,0.00
2012-5-26,95.5,81.6,67.6,76.9,70.9,64.9,98,74,38,29.96,29.84,9,2,0,0.17
2012-5-27,97.3,84.2,72.1,78.3,74.0,71.5,98,74,46,29.88,29.74,5,1,0,0.00
2012-5-28,96.8,85.5,73.9,75.9,74.0,71.8,98,71,46,29.80,29.69,8,2,0,0.00
2012-5-29,95.9,84.3,73.8,75.5,72.7,69.1,98,71,44,29.78,29.68,10,4,0,0.00
2012-5-30,96.6,83.8,74.8,78.5,75.5,71.9,98,79,46,29.77,29.62,8,4,0,0.00
2012-5-31,92.5,77.1,68.9,77.8,72.8,67.6,98,88,55,29.70,29.63,11,2,0,0.79
2012-6-1,90.1,77.6,67.1,73.6,65.4,56.5,98,71,36,29.79,29.67,8,3,0,0.00
2012-6-2,93.4,77.1,58.6,70.7,61.9,58.1,98,64,32,29.87,29.75,7,1,0,0.00
2012-6-3,96.4,82.2,68.4,78.4,72.8,67.8,98,76,47,29.87,29.76,8,3,0,0.00
2012-6-4,96.1,83.9,72.5,78.7,75.0,71.9,98,78,49,29.81,29.65,10,3,0,0.00
2012-6-5,97.3,84.9,75.6,79.5,76.5,73.5,98,78,50,29.70,29.53,9,3,0,0.00
2012-6-6,97.3,81.6,71.2,80.7,76.2,70.6,98,86,55,29.73,29.60,9,2,0,1.57
2012-6-7,91.2,76.1,70.2,80.6,73.2,69.6,98,92,67,29.76,29.68,12,2,0,0.35
2012-6-8,90.5,76.7,70.2,80.6,74.1,69.6,98,92,68,29.77,29.67,9,2,0,0.02
2012-6-9,90.9,78.4,73.0,80.9,76.0,72.4,98,93,69,29.71,29.61,8,2,0,0.05
2012-6-10,86.4,78.2,72.9,80.1,75.8,72.3,98,93,78,29.78,29.64,10,2,0,0.45
2012-6-11,95.0,84.7,75.4,84.1,80.2,74.8,98,87,66,29.92,29.77,15,4,0,0.00
2012-6-12,85.1,76.1,69.8,79.3,73.8,69.2,98,93,72,30.02,29.79,11,3,0,0.09
2012-6-13,94.5,83.2,70.5,79.6,75.4,69.9,98,79,55,29.90,29.76,6,1,0,0.00
2012-6-14,94.1,79.6,69.4,79.6,75.4,68.8,98,88,60,29.87,29.78,9,2,0,0.80
2012-6-15,90.1,76.8,68.9,83.9,74.0,68.3,98,92,64,29.90,29.82,8,1,0,0.88
2012-6-16,90.5,79.2,69.1,83.3,74.0,68.5,98,86,63,29.94,29.84,8,2,0,0.01
2012-6-17,90.1,78.1,69.3,82.9,75.9,68.7,98,93,76,29.90,29.76,8,2,0,0.00
2012-6-18,86.0,77.4,73.6,85.4,76.8,73.0,98,98,98,29.83,29.75,7,1,0,0.50
2012-6-19,91.6,82.2,73.9,85.4,77.2,73.3,98,86,63,29.89,29.81,11,3,0,0.00
2012-6-20,91.9,81.0,69.4,83.8,75.5,68.8,98,85,57,29.89,29.81,9,2,0,0.00
2012-6-21,93.0,81.4,70.5,82.5,74.6,69.9,98,82,53,29.86,29.73,8,2,0,0.00
2012-6-22,94.5,83.6,70.2,82.0,76.2,69.6,98,81,57,29.77,29.66,10,2,0,0.00
2012-6-23,96.4,85.7,75.4,85.4,80.1,74.8,98,85,58,29.73,29.66,8,2,0,0.00
2012-6-24,98.6,84.3,75.2,86.9,80.9,74.6,98,91,56,29.74,29.61,9,1,0,0.11
2012-6-25,102.0,88.5,76.3,83.5,76.8,71.4,98,72,38,29.66,29.49,8,3,0,0.00
2012-6-26,102.2,90.5,78.3,80.1,75.1,70.1,98,64,37,29.62,29.51,7,3,0,0.00
2012-6-27,102.4,89.0,77.2,85.3,77.7,72.1,98,71,45,29.83,29.63,7,2,0,0.00
2012-6-28,99.7,88.1,77.4,91.1,80.8,76.7,98,82,51,29.92,29.82,6,2,0,0.00
2012-6-29,100.0,87.7,77.5,89.7,80.6,75.1,98,82,49,29.89,29.74,9,2,0,0.00
2012-6-30,96.4,85.9,74.7,86.8,79.6,66.3,98,84,39,29.82,29.74,6,2,0,0.00
2012-7-1,97.3,86.1,75.7,91.5,82.0,75.1,98,89,60,29.90,29.80,7,2,0,0.00
2012-7-2,97.2,82.9,74.8,88.1,79.3,74.2,98,90,57,29.98,29.86,7,1,0,0.26
2012-7-3,99.3,85.5,74.1,87.2,79.1,73.5,98,84,54,29.92,29.78,9,2,0,0.00
2012-7-4,96.1,82.0,76.1,92.0,80.0,75.5,98,94,63,29.92,29.83,7,2,0,0.88
2012-7-5,97.7,84.2,73.2,91.5,80.9,72.6,98,91,61,81.91,29.81,7,2,0,0.00
2012-7-6,94.6,81.2,74.8,90.8,79.8,74.2,98,96,72,29.89,29.82,8,1,0,0.09
2012-7-7,94.5,79.7,73.2,90.4,78.2,72.6,98,96,75,29.90,29.81,7,1,0,0.64
2012-7-8,94.8,78.5,73.9,90.8,75.9,-99.9,98,96,74,29.92,29.82,6,1,0,0.00
2012-7-9,91.0,81.5,74.3,88.2,79.6,73.7,98,94,75,29.89,29.78,11,3,0,0.00
2012-7-10,86.9,78.5,73.9,86.3,77.9,73.3,98,98,98,29.86,29.75,10,2,0,0.27
2012-7-11,88.9,80.8,74.8,88.2,80.1,74.2,98,98,98,29.88,29.78,17,2,0,0.37
2012-7-12,95.9,79.7,73.8,92.1,78.6,73.2,98,97,74,29.85,29.80,11,2,0,1.11
2012-7-13,92.1,78.1,73.6,88.3,77.3,73.0,98,97,78,29.89,29.80,7,1,0,0.32
2012-7-14,89.1,82.3,73.0,88.4,81.7,72.4,98,98,98,29.89,29.82,3,0,0,0.00
2012-7-15,89.1,89.1,89.1,88.4,88.4,88.4,98,98,98,29.89,29.89,0,0,0,0.00
2012-7-16,93.2,86.4,77.2,92.5,85.8,76.6,98,98,98,29.92,29.81,5,1,0,0.01
2012-7-17,98.2,85.1,75.6,94.5,84.0,75.0,98,97,76,29.88,29.76,4,0,0,0.04
2012-7-18,97.3,84.8,75.9,93.9,83.0,75.3,98,95,76,29.94,29.80,6,2,0,0.78
2012-7-19,97.0,82.0,74.7,94.3,81.0,74.1,98,97,85,29.97,29.87,16,2,0,1.36
2012-7-20,93.4,79.9,73.4,92.7,79.3,72.8,98,98,98,29.91,29.79,9,2,0,1.15
2012-7-21,83.7,77.8,73.6,83.0,77.2,73.0,98,98,98,29.91,29.80,6,1,0,0.71
2012-7-22,92.8,82.2,75.0,92.2,81.6,74.4,98,98,98,29.96,29.85,7,1,0,0.00
2012-7-23,95.5,82.3,76.3,94.7,79.8,-99.9,99,95,75,30.00,29.92,7,-10,0,0.03
2012-7-24,97.5,85.8,74.8,81.3,77.1,74.2,98,78,53,29.99,29.84,7,2,0,0.00
2012-7-25,97.2,84.6,75.6,81.7,77.8,74.2,98,82,55,29.89,29.80,17,2,0,0.00
2012-7-26,95.7,82.8,75.9,81.5,77.3,72.5,98,85,57,29.87,29.77,9,2,0,0.01
2012-7-27,91.4,81.5,75.9,81.7,78.5,75.3,98,91,69,29.91,29.84,9,2,0,0.41
2012-7-28,90.5,81.4,78.3,81.7,79.0,77.3,98,93,72,29.95,29.85,9,2,0,0.01
2012-7-29,99.3,86.2,74.5,81.1,77.9,73.9,98,79,55,29.90,29.79,6,2,0,0.00
2012-7-30,97.7,88.0,78.4,81.7,79.9,77.8,98,79,57,29.89,29.77,6,3,0,0.00
2012-7-31,96.6,87.1,79.0,81.7,78.9,77.6,98,78,56,29.87,29.78,7,3,0,0.00
2012-8-1,97.3,86.7,80.6,81.3,79.2,77.0,94,80,58,29.86,29.73,7,3,0,0.00
2012-8-2,94.6,85.4,77.4,83.6,79.3,76.7,98,83,62,29.82,29.71,7,2,0,0.00
2012-8-3,98.6,84.6,77.0,83.3,78.1,75.3,98,83,53,29.82,29.73,8,2,0,0.00
2012-8-4,94.8,83.0,76.3,82.8,78.3,75.0,98,87,60,29.90,29.76,8,2,0,0.00
2012-8-5,96.6,80.7,74.3,80.3,76.6,73.7,98,89,58,29.96,29.87,8,1,0,0.98
2012-8-6,97.0,82.4,73.8,81.6,76.2,73.2,98,84,58,29.92,29.78,8,2,0,0.80
2012-8-7,95.9,83.5,73.0,81.5,77.6,72.4,98,84,59,29.85,29.74,5,1,0,0.00
2012-8-8,93.7,82.5,75.9,83.1,77.6,75.0,98,86,61,29.87,29.78,8,2,0,0.00
2012-8-9,93.9,79.5,73.4,84.0,76.3,72.8,98,91,65,29.84,29.72,7,2,0,0.35
2012-8-10,87.4,79.7,73.4,83.6,78.0,72.8,98,95,81,29.77,29.65,10,4,0,0.00
2012-8-11,93.4,81.6,73.2,80.6,77.5,72.6,98,89,62,29.84,29.70,7,2,0,3.09
2012-8-12,97.5,83.4,75.7,82.5,77.6,75.1,98,85,52,29.88,29.79,6,2,0,0.00
2012-8-13,96.1,85.4,76.1,82.5,79.3,75.5,98,83,62,29.88,29.77,12,3,0,0.00
2012-8-14,97.2,86.7,78.3,83.0,80.6,77.6,98,83,61,29.84,29.72,11,4,0,0.00
2012-8-15,97.5,87.9,77.4,83.4,79.7,75.4,98,78,52,29.86,29.76,8,3,0,0.00
2012-8-16,95.5,84.9,77.5,82.5,79.3,73.5,98,85,59,29.90,29.79,8,2,0,0.00
2012-8-17,94.8,82.0,75.9,83.1,78.2,75.3,98,89,62,29.86,29.75,7,2,0,0.02
2012-8-18,90.9,75.5,72.1,88.8,74.5,71.5,98,97,77,29.80,29.72,7,1,0,4.48
2012-8-19,77.2,74.0,70.5,76.6,73.4,69.9,98,98,98,29.81,29.65,5,2,0,1.16
2012-8-20,93.0,79.2,68.9,80.1,73.3,68.3,98,84,56,29.76,29.68,7,2,0,0.00
2012-8-21,88.3,78.7,70.2,79.0,74.9,69.6,98,89,72,29.88,29.74,7,2,0,0.00
2012-8-22,91.0,80.3,71.1,74.8,71.6,69.9,98,77,53,29.93,29.84,6,2,0,0.00
2012-8-23,92.1,80.1,69.3,77.5,73.6,68.7,98,82,59,29.92,29.84,7,2,0,0.00
2012-8-24,89.8,78.6,72.1,79.9,75.9,71.5,98,92,69,29.90,29.81,13,2,0,0.96
2012-8-25,90.1,77.6,71.8,81.5,75.3,71.2,98,93,70,29.87,29.80,8,1,0,0.46
2012-8-26,92.8,81.6,72.7,81.3,75.5,72.1,98,84,55,29.93,29.80,7,1,0,0.00
2012-8-27,93.9,83.0,73.0,76.6,73.5,71.4,98,76,51,29.85,29.67,9,3,0,0.00
2012-8-28,89.4,82.7,77.7,79.6,76.3,72.7,87,81,73,29.66,29.36,15,7,0,0.00
2012-8-29,82.6,77.6,75.6,77.7,76.2,75.0,98,96,82,29.36,28.77,22,11,0,5.70
2012-8-30,86.7,81.2,75.0,81.1,77.9,74.4,98,90,79,29.75,29.39,15,6,0,3.11
2012-8-31,92.8,80.6,75.9,83.8,79.0,75.3,98,95,73,29.95,29.75,11,3,0,0.62
2012-9-1,93.6,81.2,75.4,84.0,78.4,74.8,98,92,66,30.00,29.90,8,1,0,0.05
2012-9-2,93.7,83.6,76.1,82.9,79.0,75.5,98,87,66,29.95,29.81,7,2,0,0.00
2012-9-3,96.1,85.5,77.4,81.7,79.6,76.7,98,84,61,29.88,29.76,10,3,0,0.00
2012-9-4,95.7,85.2,77.2,81.1,78.8,76.6,98,83,59,29.84,29.72,8,3,0,0.00
2012-9-5,95.5,85.0,77.5,81.1,79.5,76.9,98,85,63,29.78,29.66,9,3,0,0.00
2012-9-6,96.8,85.6,77.7,83.6,79.9,77.1,98,85,60,29.79,29.68,6,2,0,0.00
2012-9-7,95.0,83.9,75.7,82.3,78.4,75.1,98,85,61,29.77,29.64,6,1,0,0.00
2012-9-8,94.8,81.6,73.8,82.6,77.1,71.0,98,87,68,29.82,29.65,9,3,0,0.00
2012-9-9,85.6,74.7,64.2,70.6,64.4,61.9,95,72,49,29.90,29.79,8,3,0,0.00
2012-9-10,87.6,73.8,60.8,67.1,64.4,60.2,98,76,47,29.96,29.87,9,2,0,0.00
2012-9-11,90.3,76.0,62.8,73.1,68.0,62.2,98,79,48,29.98,29.88,7,2,0,0.00
2012-9-12,91.4,80.7,71.4,77.9,74.8,70.8,98,83,58,29.97,29.87,7,2,0,0.00
2012-9-13,75.7,74.8,73.9,75.1,74.2,73.3,98,98,98,29.95,29.93,2,1,0,0.00
2012-9-14,79.7,75.9,73.9,72.5,72.0,71.4,94,88,76,29.98,29.92,0,0,0,0.00
2012-9-15,90.7,78.8,67.6,74.2,71.1,67.1,98,79,54,29.97,29.86,7,1,0,0.00
2012-9-16,92.8,79.4,69.6,79.1,74.1,69.0,98,86,54,29.89,29.74,7,2,0,0.00
2012-9-17,84.0,76.0,70.5,78.1,74.8,69.9,98,96,81,29.77,29.52,8,1,0,2.04
2012-9-18,86.0,76.0,70.2,74.6,71.9,69.6,98,88,64,29.87,29.61,8,3,0,0.07
2012-9-19,81.9,70.9,62.2,68.9,62.8,60.1,98,77,52,29.95,29.86,9,2,0,0.00
2012-9-20,88.0,72.5,59.0,69.8,64.6,58.2,98,78,53,29.94,29.82,6,1,0,0.00
2012-9-21,90.5,75.9,63.3,73.7,68.8,62.7,98,81,53,29.89,29.78,4,1,0,0.00
2012-9-22,90.9,80.4,67.8,76.5,72.4,67.2,98,79,55,29.94,29.84,6,1,0,0.00
2012-9-23,92.1,79.2,68.0,76.3,72.5,67.4,98,82,57,30.01,29.93,5,1,0,0.00
2012-9-24,91.6,79.8,70.0,78.6,73.9,69.4,98,84,59,30.01,29.88,5,1,0,0.00
2012-9-25,90.3,78.7,70.5,78.1,73.7,69.9,98,86,62,29.95,29.86,5,2,0,0.00
2012-9-26,89.6,77.0,65.1,75.5,71.0,64.5,98,84,56,29.95,29.86,6,1,0,0.00
2012-9-27,90.1,78.2,67.6,77.9,73.0,67.1,98,86,56,29.98,29.85,6,2,0,0.00
2012-9-28,88.7,77.7,72.5,80.3,75.6,71.9,98,94,71,29.91,29.80,9,1,0,0.15
2012-9-29,79.9,75.5,73.8,78.9,74.9,73.2,98,98,96,29.82,29.67,5,1,0,1.04
2012-9-30,86.4,77.2,68.4,81.6,75.8,67.8,98,96,84,29.67,29.36,10,3,0,1.25
2012-10-1,70.2,64.4,60.3,67.1,63.2,59.7,98,96,87,29.63,29.40,13,4,0,0.04
2012-10-2,82.2,69.1,56.5,66.2,61.7,55.9,98,80,49,29.83,29.62,6,2,0,0.09
2012-10-3,85.5,70.1,59.5,74.3,66.7,59.0,98,90,62,29.96,29.82,5,1,0,0.62
2012-10-4,88.2,74.0,63.3,75.8,68.0,62.7,98,84,55,30.06,29.95,6,1,0,0.00
2012-10-5,89.8,74.7,65.1,75.1,68.5,64.5,98,84,51,29.99,29.83,7,1,0,0.00
2012-10-6,86.2,72.7,61.2,75.2,68.8,60.6,98,88,64,29.89,29.79,7,2,0,0.00
2012-10-7,67.5,59.5,54.7,60.1,56.9,53.8,98,92,77,29.99,29.89,8,4,0,0.01
2012-10-8,72.0,60.1,51.8,60.4,55.0,50.0,98,84,65,30.03,29.92,9,3,0,0.00
2012-10-9,79.9,63.1,49.3,63.1,57.2,48.7,98,84,52,30.00,29.85,5,1,0,0.00
2012-10-10,85.5,72.4,59.0,72.9,67.5,58.4,98,86,65,30.01,29.90,6,1,0,0.00
2012-10-11,87.8,75.7,65.3,73.1,67.0,-99.9,98,79,58,30.07,29.92,5,-13,0,0.00
2012-10-12,86.4,73.2,61.7,74.2,68.9,61.1,98,88,62,29.98,29.88,6,1,0,0.00
2012-10-13,88.5,75.5,64.8,75.8,70.6,64.2,98,86,59,29.95,29.81,10,2,0,0.00
2012-10-14,89.6,77.9,68.7,78.5,73.5,68.1,98,88,61,29.91,29.75,7,2,0,0.00
2012-10-15,82.9,73.4,60.8,73.5,67.3,60.2,98,83,54,29.87,29.70,8,2,0,0.51
2012-10-16,80.6,67.7,54.9,68.1,61.6,54.3,98,82,55,29.86,29.67,7,2,0,0.00
2012-10-17,86.2,74.0,61.0,75.9,70.0,60.4,98,88,68,29.76,29.56,9,2,0,0.00
2012-10-18,82.6,74.0,59.0,74.4,60.2,46.1,98,67,30,29.88,29.62,8,2,0,0.00
2012-10-19,81.3,64.5,49.1,56.1,46.4,-1.6,98,64,4,29.94,29.79,9,2,0,0.00
2012-10-20,84.2,63.8,47.5,60.3,50.7,43.6,98,71,25,30.00,29.83,4,1,0,0.00
2012-10-21,87.4,68.1,52.0,68.3,60.3,51.5,98,80,43,30.07,29.90,6,2,0,0.00
2012-10-22,84.6,69.8,56.8,70.6,65.0,56.2,98,87,59,30.09,29.91,8,2,0,0.00
2012-10-23,86.7,72.9,61.9,73.1,68.5,61.3,98,88,60,30.04,29.87,6,2,0,0.00
2012-10-24,86.4,73.5,65.8,74.3,68.8,65.2,98,87,60,30.03,29.84,6,2,0,0.00
2012-10-25,86.9,72.6,63.3,74.2,67.8,62.7,98,87,58,29.95,29.79,6,1,0,0.00
2012-10-26,86.4,69.7,54.3,75.0,66.2,53.2,98,90,65,30.01,29.80,11,3,0,0.00
2012-10-27,62.8,54.2,48.6,53.3,49.5,43.0,96,85,70,30.05,29.89,13,5,0,0.00
2012-10-28,65.7,52.9,42.6,44.8,42.2,39.9,90,69,43,30.13,29.98,9,4,0,0.00
2012-10-29,65.7,52.6,41.0,42.7,40.1,37.8,92,65,39,30.21,29.99,9,4,0,0.00
2012-10-30,70.5,53.3,36.0,48.5,40.9,33.3,98,68,35,30.08,29.88,8,2,0,0.00
2012-10-31,80.2,64.6,44.6,66.0,58.2,44.1,98,82,55,30.02,29.82,9,3,0,0.00
2012-11-1,82.8,67.6,54.3,66.3,61.9,53.7,98,84,51,30.03,29.85,6,1,0,0.00
2012-11-2,85.6,72.2,57.9,73.2,67.2,57.3,98,86,58,30.03,29.86,8,2,0,0.00
2012-11-3,86.0,70.8,59.0,72.6,65.3,58.4,98,85,54,30.07,29.90,9,2,0,0.00
2012-11-4,72.9,64.8,58.6,72.0,64.2,58.0,98,98,94,30.04,29.89,6,1,0,0.41
2012-11-5,75.2,64.2,54.7,69.1,62.1,54.1,98,93,79,30.01,29.78,8,2,0,0.25
2012-11-6,66.4,56.5,46.6,58.4,53.7,46.1,98,91,66,30.02,29.85,9,2,0,0.01
2012-11-7,71.1,56.1,43.9,52.8,46.2,43.0,98,73,39,30.09,29.89,8,2,0,0.00
2012-11-8,68.2,53.0,40.1,49.4,45.6,39.6,98,79,48,30.21,30.04,6,1,0,0.00
2012-11-9,76.6,58.0,42.1,62.4,53.6,41.6,98,87,58,30.17,30.01,6,2,0,0.00
2012-11-10,80.1,65.1,50.9,67.0,60.3,50.4,98,86,62,30.13,29.96,10,2,0,0.00
2012-11-11,81.1,71.1,60.3,70.5,66.6,59.7,98,87,66,30.03,29.89,11,4,0,0.45
2012-11-12,70.0,59.3,43.5,69.4,55.1,40.2,98,87,67,30.29,29.94,12,4,0,0.54
2012-11-13,59.4,48.5,38.3,42.1,38.8,34.9,95,71,46,30.36,30.15,10,3,0,0.00
2012-11-14,64.0,50.5,39.6,41.4,39.2,37.2,91,68,41,30.27,30.09,8,2,0,0.00
2012-11-15,65.8,50.3,36.7,48.0,43.6,36.2,98,80,50,30.23,30.05,6,2,0,0.00
2012-11-16,67.6,54.1,43.2,51.3,46.7,42.5,98,78,50,30.23,30.07,7,2,0,0.00
2012-11-17,70.3,52.6,39.0,48.7,44.5,38.5,98,77,44,30.28,30.10,6,1,0,0.00
2012-11-18,69.3,52.7,40.6,49.6,45.6,40.1,98,80,47,30.22,30.08,5,1,0,0.00
2012-11-19,72.9,55.6,41.4,56.5,50.0,40.9,98,84,54,30.19,30.00,6,1,0,0.00
2012-11-20,75.6,59.4,45.3,56.4,51.1,44.8,98,78,44,30.12,29.96,5,1,0,0.00
2012-11-21,78.1,58.9,44.8,64.3,51.9,44.3,98,81,44,30.14,29.97,6,1,0,0.00
2012-11-22,77.5,57.8,43.2,58.8,50.6,42.7,98,81,43,30.16,30.00,6,1,0,0.00
2012-11-23,77.9,62.8,48.6,62.9,57.6,48.1,98,85,60,30.16,30.01,7,2,0,0.00
2012-11-24,61.3,51.5,37.9,54.4,42.3,36.6,95,72,47,30.24,30.05,8,2,0,0.00
2012-11-25,69.4,50.3,33.3,51.9,43.5,32.8,98,81,46,30.11,29.91,6,1,0,0.00
2012-11-26,75.6,61.9,47.7,70.8,60.9,47.2,98,97,85,29.99,29.88,9,2,0,0.10
2012-11-27,64.6,54.3,47.1,64.0,53.7,46.6,98,98,98,30.21,29.90,9,3,0,0.01
2012-11-28,64.6,51.2,39.6,48.8,43.9,39.1,98,79,43,30.33,30.17,6,2,0,0.00
2012-11-29,68.5,51.8,35.8,57.0,47.6,35.3,98,87,61,30.25,30.08,7,2,0,0.00
2012-11-30,74.7,57.4,45.1,63.1,53.9,44.6,98,89,62,30.17,30.00,5,1,0,0.00
2012-12-1,78.8,62.7,49.3,67.5,59.2,48.8,98,90,65,30.14,29.99,6,2,0,0.00
2012-12-2,80.1,66.6,55.8,70.2,63.3,55.2,98,90,66,30.14,29.98,6,1,0,0.00
2012-12-3,81.5,67.9,56.8,71.4,63.9,56.2,98,89,62,30.07,29.93,8,2,0,0.00
2012-12-4,75.7,66.3,63.1,73.3,65.5,62.5,98,97,89,30.11,29.95,5,1,0,1.05
2012-12-5,63.9,62.5,61.5,63.3,61.9,60.9,98,98,98,30.02,29.87,7,3,0,0.86
2012-12-6,72.1,65.1,60.3,68.7,64.1,59.7,98,97,89,29.93,29.75,5,1,0,0.00
2012-12-7,76.8,65.6,57.7,68.5,61.6,57.1,98,89,56,29.87,29.70,5,1,0,0.00
2012-12-8,79.2,66.2,57.7,68.4,62.5,57.1,98,89,60,29.87,29.72,9,1,0,0.00
2012-12-9,80.6,69.0,57.2,75.7,67.3,56.6,98,95,73,29.88,29.71,8,2,0,0.00
2012-12-10,71.8,60.1,45.1,71.2,59.4,44.6,98,98,92,29.91,29.61,16,5,0,1.96
2012-12-11,48.2,43.3,38.7,44.5,39.8,36.0,98,88,72,30.09,29.88,7,3,0,0.00
2012-12-12,58.5,44.8,34.5,40.2,34.1,25.2,98,72,28,30.22,30.04,8,2,0,0.00
2012-12-13,63.5,44.5,30.9,44.5,37.1,30.4,98,78,47,30.28,30.11,6,1,0,0.00
2012-12-14,69.1,52.1,34.9,59.9,49.3,34.4,98,91,71,30.20,29.92,8,3,0,0.00
2012-12-15,77.4,65.7,55.6,70.0,63.3,55.0,98,92,78,29.98,29.77,9,3,0,0.00
2012-12-16,78.3,65.4,60.4,73.0,64.1,59.8,98,96,82,29.84,29.65,12,3,0,0.51
2012-12-17,71.4,62.2,49.8,66.9,59.2,47.6,98,91,63,29.81,29.62,6,2,0,0.55
2012-12-18,74.1,54.9,40.1,53.9,48.0,39.6,98,81,43,29.94,29.78,5,1,0,0.00
2012-12-19,79.2,63.7,45.0,72.8,60.7,44.5,98,91,67,29.89,29.67,11,3,0,0.00
2012-12-20,74.3,58.8,45.1,73.7,48.1,28.0,98,70,44,30.22,29.63,17,7,0,0.78
2012-12-21,59.7,45.6,33.8,32.7,26.5,20.7,95,51,23,30.36,30.18,9,3,0,0.00
2012-12-22,65.7,46.1,29.8,41.1,34.6,29.1,98,71,27,30.34,30.10,6,1,0,0.00
2012-12-23,68.9,59.2,45.3,64.6,55.9,41.1,98,89,81,30.13,29.80,10,3,0,0.00
2012-12-24,80.2,68.4,58.1,70.5,64.4,57.5,98,89,61,29.82,29.67,9,3,0,0.00
2012-12-25,75.2,64.2,49.1,71.5,61.7,44.7,98,92,82,29.71,29.31,23,6,0,0.34
2012-12-26,48.0,42.0,37.8,42.9,38.2,35.4,95,86,79,30.07,29.68,20,6,0,0.00
2012-12-27,54.3,44.1,35.2,48.8,41.6,34.7,98,91,77,30.10,29.87,7,3,0,0.00
2012-12-28,70.2,57.4,47.5,69.0,56.8,46.7,98,98,95,29.89,29.57,19,5,0,2.82
2012-12-29,51.1,44.1,37.2,45.9,38.1,31.6,98,80,59,30.32,29.86,13,5,0,0.04
2012-12-30,53.8,40.2,29.1,35.0,32.0,27.8,96,74,47,30.42,30.20,10,2,0,0.00
2012-12-31,62.6,52.4,39.0,57.7,48.4,35.4,98,86,78,30.21,29.90,7,3,0,0.00
2013-1-1,69.3,58.2,48.7,68.1,57.6,48.2,98,98,96,29.99,29.75,14,3,0,1.18